Time;durP1;ratioP1;P1;durP2;ratioP2;P2;SDS_P1;SDS_P2;PMS_P1;PMS_P2;Temp;Humidity;BMP_temperature;BMP_pressure;BME280_temperature;BME280_humidity;BME280_pressure;Samples;Min_cycle;Max_cycle;Signal;HPM_P1;HPM_P2
2021/08/16 00:01:21;;;;;;;12.25;11.05;;;21.10;99.90;;;;;;4955353;28;20544;-56
2021/08/16 00:03:46;;;;;;;11.50;10.57;;;21.10;99.90;;;;;;4954259;28;20268;-57
2021/08/16 00:06:12;;;;;;;13.73;12.37;;;21.20;99.90;;;;;;4955206;28;20235;-57
2021/08/16 00:08:38;;;;;;;11.23;10.13;;;21.30;99.90;;;;;;4952790;28;20217;-56
2021/08/16 00:11:04;;;;;;;10.87;9.87;;;21.30;99.90;;;;;;4949339;28;20204;-56
2021/08/16 00:13:31;;;;;;;12.82;10.57;;;21.30;99.90;;;;;;4954576;28;20185;-56
2021/08/16 00:15:57;;;;;;;12.05;10.55;;;21.40;99.90;;;;;;4954515;28;20299;-58
2021/08/16 00:18:23;;;;;;;12.63;10.85;;;21.50;99.90;;;;;;4953584;28;20208;-57
2021/08/16 00:20:49;;;;;;;12.63;11.20;;;21.50;99.90;;;;;;4952989;29;20670;-57
2021/08/16 00:23:15;;;;;;;12.38;11.18;;;21.50;99.90;;;;;;4953125;29;20181;-58
2021/08/16 00:25:41;;;;;;;13.90;10.63;;;21.60;99.90;;;;;;4953824;28;20218;-57
2021/08/16 00:28:06;;;;;;;10.98;9.98;;;21.60;99.90;;;;;;4953830;28;20193;-57
2021/08/16 00:30:32;;;;;;;12.00;10.33;;;21.70;99.90;;;;;;4954141;28;20429;-55
2021/08/16 00:32:58;;;;;;;11.60;9.93;;;21.80;99.90;;;;;;4954283;28;20649;-58
2021/08/16 00:35:24;;;;;;;15.00;10.07;;;21.70;99.90;;;;;;4947945;28;20745;-56
2021/08/16 00:37:49;;;;;;;11.93;10.83;;;21.80;99.90;;;;;;4953028;28;20236;-58
2021/08/16 00:40:16;;;;;;;10.80;9.70;;;21.80;99.90;;;;;;4952101;28;20207;-57
2021/08/16 00:42:42;;;;;;;11.27;10.27;;;21.90;99.90;;;;;;4953744;28;20272;-57
2021/08/16 00:45:08;;;;;;;10.63;9.63;;;21.90;99.90;;;;;;4954451;28;20185;-56
2021/08/16 00:47:36;;;;;;;10.45;9.65;;;22.00;99.90;;;;;;4958386;28;20291;-57
2021/08/16 00:50:02;;;;;;;11.23;10.23;;;22.00;99.90;;;;;;4952812;28;20196;-58
2021/08/16 00:52:28;;;;;;;12.47;11.33;;;22.00;99.90;;;;;;4953319;28;20552;-57
2021/08/16 00:54:56;;;;;;;9.27;8.40;;;22.00;99.90;;;;;;4952866;28;20444;-56
2021/08/16 00:57:23;;;;;;;11.40;10.30;;;22.00;99.90;;;;;;4948045;28;21072;-57
2021/08/16 00:59:49;;;;;;;13.88;10.25;;;22.00;99.90;;;;;;4953387;28;20204;-56
2021/08/16 01:02:15;;;;;;;11.38;10.23;;;22.10;99.90;;;;;;4953974;28;20276;-57
2021/08/16 01:04:40;;;;;;;10.60;9.50;;;22.10;99.90;;;;;;4948979;29;20778;-57
2021/08/16 01:07:06;;;;;;;11.30;9.70;;;22.10;99.90;;;;;;4953769;28;20244;-57
2021/08/16 01:09:33;;;;;;;10.30;9.30;;;22.10;99.90;;;;;;4953466;28;20697;-56
2021/08/16 01:11:59;;;;;;;10.02;9.07;;;22.10;99.90;;;;;;4953689;28;20649;-58
2021/08/16 01:14:25;;;;;;;10.27;9.23;;;22.20;99.90;;;;;;4953204;28;20188;-57
2021/08/16 01:16:50;;;;;;;11.27;9.20;;;22.20;99.90;;;;;;4953170;28;20472;-56
2021/08/16 01:19:20;;;;;;;11.10;9.33;;;22.20;99.90;;;;;;4949028;28;20445;-57
2021/08/16 01:21:46;;;;;;;12.00;10.80;;;22.20;99.90;;;;;;4952846;28;20181;-56
2021/08/16 01:24:12;;;;;;;11.47;9.60;;;22.30;99.90;;;;;;4953479;28;20188;-56
2021/08/16 01:26:38;;;;;;;10.87;9.80;;;22.30;99.90;;;;;;4952526;28;20472;-56
2021/08/16 01:29:15;;;;;;;10.10;9.10;;;22.30;99.90;;;;;;4952900;28;20195;-58
2021/08/16 01:31:41;;;;;;;10.53;9.10;;;22.20;99.90;;;;;;4952911;28;20189;-57
2021/08/16 01:34:06;;;;;;;10.80;9.70;;;22.20;99.90;;;;;;4953624;28;20448;-56
2021/08/16 01:36:32;;;;;;;13.37;10.10;;;22.20;99.90;;;;;;4949806;28;20491;-57
2021/08/16 01:38:58;;;;;;;10.90;9.63;;;22.20;99.90;;;;;;4951954;28;20189;-58
2021/08/16 01:41:23;;;;;;;11.60;10.50;;;22.10;99.90;;;;;;4952164;28;20197;-57
2021/08/16 01:43:49;;;;;;;10.60;9.60;;;22.20;99.90;;;;;;4953366;29;20185;-58
2021/08/16 01:46:15;;;;;;;11.23;10.10;;;22.20;99.90;;;;;;4952850;28;20213;-58
2021/08/16 01:48:40;;;;;;;11.70;9.93;;;22.10;99.90;;;;;;4959354;28;20592;-58
2021/08/16 01:51:06;;;;;;;12.10;11.00;;;22.10;99.90;;;;;;4952356;28;20179;-58
2021/08/16 01:53:32;;;;;;;11.50;10.30;;;22.10;99.90;;;;;;4953475;28;20264;-56
2021/08/16 01:55:58;;;;;;;11.23;10.23;;;22.00;99.90;;;;;;4952416;28;20201;-56
2021/08/16 01:58:23;;;;;;;12.37;11.07;;;22.00;99.90;;;;;;4949310;28;20637;-57
2021/08/16 02:00:49;;;;;;;15.70;10.63;;;22.00;99.90;;;;;;4951312;28;20584;-56
2021/08/16 02:03:15;;;;;;;10.80;9.80;;;21.90;99.90;;;;;;4952346;28;20696;-56
2021/08/16 02:05:41;;;;;;;12.70;9.43;;;22.00;99.90;;;;;;4952648;28;20761;-56
2021/08/16 02:08:08;;;;;;;9.88;8.93;;;21.90;99.90;;;;;;4952664;28;20666;-54
2021/08/16 02:10:34;;;;;;;10.25;9.35;;;22.00;99.90;;;;;;4951942;29;20189;-58
2021/08/16 02:12:59;;;;;;;10.97;9.97;;;22.00;99.90;;;;;;4952968;28;20654;-57
2021/08/16 02:15:25;;;;;;;11.50;10.50;;;22.00;99.90;;;;;;4952525;28;20659;-57
2021/08/16 02:17:50;;;;;;;13.60;10.80;;;21.90;99.90;;;;;;4952036;28;20217;-56
2021/08/16 02:20:16;;;;;;;11.40;10.33;;;21.90;99.90;;;;;;4950559;28;20310;-57
2021/08/16 02:22:42;;;;;;;11.27;10.17;;;21.80;99.90;;;;;;4952831;28;20737;-57
2021/08/16 02:25:08;;;;;;;14.00;10.30;;;21.80;99.90;;;;;;4951704;28;20173;-56
2021/08/16 02:27:34;;;;;;;11.23;10.23;;;21.80;99.90;;;;;;4952641;28;20251;-56
2021/08/16 02:29:59;;;;;;;13.83;11.20;;;21.80;99.90;;;;;;4950795;28;20200;-55
2021/08/16 02:32:25;;;;;;;11.53;10.40;;;21.80;99.90;;;;;;4952213;28;20189;-57
2021/08/16 02:34:51;;;;;;;11.30;10.20;;;21.80;99.90;;;;;;4951037;28;20606;-58
2021/08/16 02:37:16;;;;;;;10.90;9.90;;;21.80;99.90;;;;;;4951232;28;20698;-57
2021/08/16 02:39:43;;;;;;;11.10;10.20;;;21.80;99.90;;;;;;4951457;28;20193;-59
2021/08/16 02:42:09;;;;;;;12.27;11.05;;;21.70;99.90;;;;;;4950577;28;20205;-57
2021/08/16 02:44:34;;;;;;;11.67;10.53;;;21.60;99.90;;;;;;4951838;28;20188;-57
2021/08/16 02:47:00;;;;;;;11.70;10.70;;;21.50;99.90;;;;;;4955685;28;20204;-57
2021/08/16 02:49:26;;;;;;;10.93;9.83;;;21.50;99.90;;;;;;4950036;28;20564;-55
2021/08/16 02:51:51;;;;;;;11.80;10.00;;;21.40;99.90;;;;;;4951669;28;20186;-57
2021/08/16 02:54:17;;;;;;;10.73;9.73;;;21.40;99.90;;;;;;4952269;29;20331;-58
2021/08/16 02:56:43;;;;;;;11.13;10.13;;;21.40;99.90;;;;;;4951148;28;20258;-58
2021/08/16 02:59:08;;;;;;;11.60;10.40;;;21.40;99.90;;;;;;4951735;28;20589;-55
2021/08/16 03:01:34;;;;;;;11.13;10.00;;;21.40;99.90;;;;;;4951209;28;20181;-56
2021/08/16 03:04:00;;;;;;;11.27;10.17;;;21.40;99.90;;;;;;4946387;28;20208;-55
2021/08/16 03:06:27;;;;;;;10.70;9.70;;;21.40;99.90;;;;;;4951375;28;20976;-56
2021/08/16 03:08:53;;;;;;;11.25;9.80;;;21.40;99.90;;;;;;4949923;28;20181;-58
2021/08/16 03:11:19;;;;;;;13.47;9.67;;;21.30;99.90;;;;;;4951042;28;20203;-56
2021/08/16 03:13:44;;;;;;;10.83;9.67;;;21.30;99.90;;;;;;4951494;28;20554;-56
2021/08/16 03:16:10;;;;;;;11.73;10.30;;;21.30;99.90;;;;;;4951236;28;20228;-58
2021/08/16 03:18:36;;;;;;;11.00;9.53;;;21.30;99.90;;;;;;4950900;28;20228;-57
2021/08/16 03:21:02;;;;;;;10.80;9.77;;;21.30;99.90;;;;;;4950250;28;20189;-57
2021/08/16 03:23:28;;;;;;;10.45;9.30;;;21.20;99.90;;;;;;4951663;28;20261;-57
2021/08/16 03:25:54;;;;;;;11.73;9.38;;;21.20;99.90;;;;;;4950465;28;20291;-56
2021/08/16 03:28:20;;;;;;;11.75;10.73;;;21.20;99.90;;;;;;4950880;28;20185;-59
2021/08/16 03:30:48;;;;;;;10.30;9.40;;;21.20;99.90;;;;;;4951724;28;20251;-57
2021/08/16 03:33:14;;;;;;;11.50;10.40;;;21.20;99.90;;;;;;4951102;28;20651;-57
2021/08/16 03:35:40;;;;;;;12.02;10.75;;;21.10;99.90;;;;;;4950748;28;20284;-57
2021/08/16 03:38:05;;;;;;;10.80;9.83;;;21.00;99.90;;;;;;4950976;28;20294;-57
2021/08/16 03:40:31;;;;;;;10.80;9.80;;;21.00;99.90;;;;;;4944624;28;20433;-57
2021/08/16 03:42:57;;;;;;;10.60;9.50;;;21.00;99.90;;;;;;4949910;28;20584;-56
2021/08/16 03:45:23;;;;;;;10.90;9.90;;;21.00;99.90;;;;;;4950827;28;20955;-59
2021/08/16 03:47:48;;;;;;;11.10;10.10;;;21.00;99.90;;;;;;4956919;28;20198;-57
2021/08/16 03:50:15;;;;;;;10.60;9.60;;;21.00;99.90;;;;;;4950504;28;20208;-56
2021/08/16 03:52:41;;;;;;;10.65;9.75;;;20.90;99.90;;;;;;4950711;28;20189;-59
2021/08/16 03:55:07;;;;;;;11.45;10.25;;;20.90;99.90;;;;;;4949561;28;20267;-59
2021/08/16 03:57:33;;;;;;;11.05;10.05;;;20.80;99.90;;;;;;4949769;28;20220;-60
2021/08/16 03:59:58;;;;;;;11.27;10.03;;;20.70;99.90;;;;;;4949579;28;20193;-60
2021/08/16 04:02:24;;;;;;;11.87;10.73;;;20.70;99.90;;;;;;4947590;29;20259;-60
2021/08/16 04:04:50;;;;;;;13.10;11.70;;;20.60;99.90;;;;;;4948866;28;20260;-60
2021/08/16 04:07:16;;;;;;;12.40;11.20;;;20.60;99.90;;;;;;4951426;28;20244;-58
2021/08/16 04:09:42;;;;;;;11.33;10.27;;;20.60;99.90;;;;;;4951523;29;20225;-58
2021/08/16 04:12:07;;;;;;;13.00;11.67;;;20.50;99.90;;;;;;4951049;28;22103;-58
2021/08/16 04:14:33;;;;;;;11.70;10.50;;;20.60;99.90;;;;;;4947770;28;20236;-59
2021/08/16 04:16:59;;;;;;;12.77;11.57;;;20.50;99.90;;;;;;4952590;28;20316;-60
2021/08/16 04:19:25;;;;;;;12.97;11.77;;;20.50;99.90;;;;;;4948026;28;20437;-59
2021/08/16 04:21:51;;;;;;;12.30;11.10;;;20.40;99.90;;;;;;4949593;29;20444;-59
2021/08/16 04:24:17;;;;;;;12.33;11.00;;;20.40;99.90;;;;;;4955224;28;20219;-60
2021/08/16 04:26:43;;;;;;;12.43;11.15;;;20.40;99.90;;;;;;4959414;28;20232;-60
2021/08/16 04:29:08;;;;;;;12.80;11.60;;;20.40;99.90;;;;;;4956248;28;20693;-60
2021/08/16 04:31:34;;;;;;;12.17;11.07;;;20.40;99.90;;;;;;4954745;28;20209;-60
2021/08/16 04:34:00;;;;;;;13.80;12.37;;;20.40;99.90;;;;;;4949092;29;20702;-60
2021/08/16 04:36:26;;;;;;;13.60;11.50;;;20.50;99.90;;;;;;4962002;28;20211;-58
2021/08/16 04:38:51;;;;;;;13.20;11.90;;;20.50;99.90;;;;;;4956030;28;20909;-58
2021/08/16 04:41:17;;;;;;;12.63;11.40;;;20.60;99.90;;;;;;4960078;28;20204;-57
2021/08/16 04:43:43;;;;;;;11.37;10.27;;;20.60;99.90;;;;;;4959548;28;20183;-60
2021/08/16 04:46:09;;;;;;;12.53;11.40;;;20.60;99.90;;;;;;4960026;28;20618;-56
2021/08/16 04:48:34;;;;;;;11.80;10.70;;;20.70;99.90;;;;;;4960038;28;20597;-56
2021/08/16 04:51:00;;;;;;;12.97;11.07;;;20.70;99.90;;;;;;4956649;28;20221;-56
2021/08/16 04:53:26;;;;;;;11.00;10.10;;;20.70;99.90;;;;;;4955205;28;20634;-56
2021/08/16 04:55:51;;;;;;;12.47;10.00;;;20.80;99.90;;;;;;4953792;28;20774;-58
2021/08/16 04:58:17;;;;;;;13.03;9.83;;;20.90;99.90;;;;;;4949784;28;20271;-57
2021/08/16 05:00:43;;;;;;;9.97;8.97;;;21.00;99.90;;;;;;4954225;28;20202;-57
2021/08/16 05:03:09;;;;;;;9.25;8.35;;;21.00;99.90;;;;;;4953669;28;20231;-57
2021/08/16 05:05:34;;;;;;;9.63;8.40;;;21.10;99.90;;;;;;4953747;28;20228;-57
2021/08/16 05:08:01;;;;;;;9.23;8.27;;;21.10;99.90;;;;;;4955101;28;20603;-57
2021/08/16 05:10:29;;;;;;;10.50;9.45;;;21.10;99.90;;;;;;4950025;28;20181;-58
2021/08/16 05:12:57;;;;;;;9.02;8.13;;;21.20;99.90;;;;;;4953213;28;20181;-56
2021/08/16 05:15:23;;;;;;;8.77;7.97;;;21.30;99.90;;;;;;4954965;28;20255;-58
2021/08/16 05:17:49;;;;;;;9.50;8.60;;;21.40;99.90;;;;;;4954099;28;20301;-57
2021/08/16 05:20:16;;;;;;;8.32;6.88;;;21.50;99.90;;;;;;4954055;28;20292;-59
2021/08/16 05:22:43;;;;;;;8.90;8.00;;;21.40;99.90;;;;;;4954121;28;20316;-58
2021/08/16 05:25:10;;;;;;;10.43;7.50;;;21.50;99.90;;;;;;4950897;28;20579;-56
2021/08/16 05:27:36;;;;;;;8.95;7.68;;;21.60;99.90;;;;;;4953174;28;20208;-57
2021/08/16 05:30:03;;;;;;;8.37;7.57;;;21.60;99.90;;;;;;4954030;28;21050;-58
2021/08/16 05:32:30;;;;;;;7.28;6.47;;;21.70;99.90;;;;;;4953740;28;20236;-57
2021/08/16 05:34:56;;;;;;;10.63;7.30;;;21.60;99.90;;;;;;4951991;28;20355;-58
2021/08/16 05:37:22;;;;;;;9.02;7.90;;;21.70;99.90;;;;;;4946386;29;20215;-58
2021/08/16 05:39:48;;;;;;;12.03;7.07;;;21.70;99.90;;;;;;4953735;28;20177;-56
2021/08/16 05:42:15;;;;;;;9.50;7.17;;;21.70;99.90;;;;;;4953604;28;20456;-59
2021/08/16 05:44:41;;;;;;;8.38;7.40;;;21.70;99.90;;;;;;4954475;28;20587;-57
2021/08/16 05:47:07;;;;;;;8.77;7.40;;;21.80;99.90;;;;;;4959705;28;20263;-55
2021/08/16 05:49:32;;;;;;;8.07;7.23;;;21.80;99.90;;;;;;4958511;28;20323;-57
2021/08/16 05:51:58;;;;;;;8.13;6.53;;;21.90;99.90;;;;;;4956196;28;20441;-57
2021/08/16 05:54:24;;;;;;;9.30;6.47;;;21.80;99.90;;;;;;4954159;28;20212;-58
2021/08/16 05:56:50;;;;;;;10.60;6.47;;;21.80;99.90;;;;;;4950643;28;20479;-56
2021/08/16 05:59:16;;;;;;;9.48;6.30;;;21.90;99.90;;;;;;4953775;28;20263;-57
2021/08/16 06:01:41;;;;;;;6.40;5.80;;;21.90;99.90;;;;;;4941965;28;20270;-54
2021/08/16 06:04:08;;;;;;;7.88;6.50;;;22.00;99.90;;;;;;4959597;28;20212;-58
2021/08/16 06:06:35;;;;;;;8.30;5.88;;;22.10;99.90;;;;;;4946832;28;20213;-54
2021/08/16 06:09:02;;;;;;;6.15;5.55;;;22.00;99.90;;;;;;4951530;29;20651;-56
2021/08/16 06:11:28;;;;;;;8.05;7.25;;;22.00;99.90;;;;;;4952636;28;20227;-55
2021/08/16 06:13:54;;;;;;;7.50;6.40;;;22.00;99.90;;;;;;4953055;28;20208;-57
2021/08/16 06:16:20;;;;;;;7.13;6.43;;;22.10;99.90;;;;;;4952954;28;20259;-57
2021/08/16 06:18:46;;;;;;;7.32;5.88;;;22.30;99.90;;;;;;4952615;28;20641;-55
2021/08/16 06:21:11;;;;;;;6.10;5.50;;;22.30;99.90;;;;;;4952100;28;20762;-56
2021/08/16 06:23:37;;;;;;;6.30;5.70;;;22.40;99.90;;;;;;4952556;28;20185;-55
2021/08/16 06:26:04;;;;;;;7.50;6.13;;;22.50;99.90;;;;;;4945485;28;20198;-56
2021/08/16 06:28:31;;;;;;;8.50;6.80;;;22.50;99.90;;;;;;4943045;29;20681;-55
2021/08/16 06:30:56;;;;;;;6.63;5.40;;;22.30;99.90;;;;;;4952013;29;20712;-57
2021/08/16 06:33:22;;;;;;;5.97;5.37;;;22.40;99.90;;;;;;4952241;29;20185;-57
2021/08/16 06:35:48;;;;;;;6.77;5.60;;;22.50;99.90;;;;;;4950627;28;20449;-55
2021/08/16 06:38:24;;;;;;;8.83;5.67;;;22.50;99.90;;;;;;4955983;28;20250;-57
2021/08/16 06:40:56;;;;;;;6.00;5.30;;;22.50;99.90;;;;;;4960846;28;20444;-57
2021/08/16 06:43:25;;;;;;;5.23;4.73;;;22.70;99.90;;;;;;4943868;29;20544;-58
2021/08/16 06:45:51;;;;;;;5.80;5.25;;;22.80;99.90;;;;;;4952001;28;20518;-57
2021/08/16 06:48:17;;;;;;;7.85;5.93;;;22.70;99.90;;;;;;4951083;28;20200;-57
2021/08/16 06:50:43;;;;;;;6.60;5.10;;;22.80;99.90;;;;;;4952764;28;20200;-57
2021/08/16 06:53:13;;;;;;;6.93;5.70;;;22.90;99.90;;;;;;4952102;28;20451;-58
2021/08/16 06:55:39;;;;;;;4.77;4.37;;;23.10;99.90;;;;;;4946878;29;20475;-55
2021/08/16 06:58:05;;;;;;;6.10;5.50;;;23.40;99.90;;;;;;4952032;28;20780;-60
2021/08/16 07:00:31;;;;;;;6.93;5.67;;;23.50;99.90;;;;;;4951997;28;20448;-58
2021/08/16 07:03:00;;;;;;;5.73;5.17;;;23.50;99.90;;;;;;4952467;28;20448;-57
2021/08/16 07:05:26;;;;;;;5.43;4.93;;;23.70;99.90;;;;;;4950048;28;20273;-56
2021/08/16 07:07:52;;;;;;;5.00;4.53;;;24.00;99.90;;;;;;4950266;28;20444;-57
2021/08/16 07:10:20;;;;;;;5.70;5.10;;;24.00;99.90;;;;;;4946640;28;20473;-57
2021/08/16 07:12:46;;;;;;;6.00;4.70;;;23.90;99.90;;;;;;4951949;28;20511;-57
2021/08/16 07:15:12;;;;;;;4.73;4.00;;;23.40;99.90;;;;;;4952279;28;20977;-57
2021/08/16 07:17:38;;;;;;;4.80;4.10;;;23.30;99.90;;;;;;4951372;28;20473;-56
2021/08/16 07:20:05;;;;;;;5.50;4.77;;;23.40;99.90;;;;;;4951366;28;20457;-57
2021/08/16 07:22:31;;;;;;;5.33;4.10;;;23.50;99.90;;;;;;4952202;28;20188;-57
2021/08/16 07:24:56;;;;;;;5.87;4.90;;;23.50;99.40;;;;;;4950144;28;20555;-56
2021/08/16 07:27:22;;;;;;;4.70;4.20;;;23.50;99.90;;;;;;4952058;28;20279;-55
2021/08/16 07:29:48;;;;;;;6.17;4.83;;;23.50;99.90;;;;;;4951646;28;20200;-56
2021/08/16 07:32:13;;;;;;;5.73;5.20;;;23.40;99.90;;;;;;4952023;28;20192;-57
2021/08/16 07:34:39;;;;;;;6.83;4.70;;;23.90;99.90;;;;;;4951126;28;20205;-55
2021/08/16 07:37:08;;;;;;;4.50;4.10;;;24.60;98.40;;;;;;4951324;28;20726;-55
2021/08/16 07:39:33;;;;;;;4.87;3.93;;;25.10;96.20;;;;;;4951633;28;20190;-57
2021/08/16 07:41:59;;;;;;;5.50;4.20;;;25.00;95.50;;;;;;4950857;29;20456;-54
2021/08/16 07:44:25;;;;;;;4.40;4.00;;;25.10;94.80;;;;;;4950386;28;20229;-55
2021/08/16 07:46:50;;;;;;;4.90;4.00;;;25.10;94.50;;;;;;4954003;28;20301;-55
2021/08/16 07:49:16;;;;;;;3.90;3.60;;;24.90;94.60;;;;;;4949179;28;20284;-56
2021/08/16 07:51:42;;;;;;;5.00;3.63;;;24.80;95.30;;;;;;4950352;29;20448;-56
2021/08/16 07:54:07;;;;;;;3.73;3.40;;;24.70;95.50;;;;;;4951060;28;20193;-56
2021/08/16 07:56:33;;;;;;;11.60;5.03;;;24.80;95.20;;;;;;4948905;28;20757;-56
2021/08/16 07:58:59;;;;;;;4.40;3.23;;;25.60;93.90;;;;;;4951794;28;20569;-57
2021/08/16 08:01:24;;;;;;;3.87;3.50;;;26.50;92.10;;;;;;4954677;28;20197;-57
2021/08/16 08:03:50;;;;;;;6.83;4.30;;;27.40;90.50;;;;;;4954635;28;20194;-56
2021/08/16 08:06:17;;;;;;;5.00;3.87;;;27.90;88.90;;;;;;4954984;28;20232;-57
2021/08/16 08:08:43;;;;;;;3.73;3.43;;;28.60;84.40;;;;;;4954863;28;20291;-57
2021/08/16 08:11:09;;;;;;;3.80;3.50;;;28.90;83.30;;;;;;4951407;28;20509;-56
2021/08/16 08:13:36;;;;;;;3.40;3.10;;;28.10;84.50;;;;;;4954799;28;20448;-56
2021/08/16 08:16:02;;;;;;;5.00;3.80;;;27.30;84.30;;;;;;4954717;28;20216;-55
2021/08/16 08:18:27;;;;;;;4.97;3.63;;;27.20;85.20;;;;;;4947078;29;20468;-56
2021/08/16 08:20:53;;;;;;;4.47;4.07;;;27.40;85.60;;;;;;4954662;29;20207;-56
2021/08/16 08:23:19;;;;;;;5.43;4.60;;;27.30;86.40;;;;;;4954611;28;20616;-55
2021/08/16 08:25:44;;;;;;;5.43;3.83;;;27.00;86.40;;;;;;4953434;28;20709;-56
2021/08/16 08:28:15;;;;;;;4.70;4.30;;;27.40;84.70;;;;;;4957132;28;20204;-55
2021/08/16 08:30:42;;;;;;;4.73;4.30;;;27.60;83.10;;;;;;4953172;29;20451;-54
2021/08/16 08:33:08;;;;;;;5.10;4.00;;;28.10;82.30;;;;;;4954740;28;20453;-54
2021/08/16 08:35:34;;;;;;;3.93;3.60;;;28.30;83.20;;;;;;4953579;28;20543;-56
2021/08/16 08:38:00;;;;;;;5.80;4.40;;;28.10;80.20;;;;;;4953296;28;20486;-56
2021/08/16 08:40:25;;;;;;;3.63;3.33;;;29.00;79.20;;;;;;4953720;28;20195;-58
2021/08/16 08:42:53;;;;;;;4.17;3.53;;;30.20;72.90;;;;;;4953854;28;20224;-56
2021/08/16 08:45:29;;;;;;;3.80;3.50;;;30.00;72.00;;;;;;4954583;28;20634;-56
2021/08/16 08:47:55;;;;;;;5.10;4.00;;;29.50;73.20;;;;;;4956607;28;20451;-57
2021/08/16 08:50:21;;;;;;;5.37;4.00;;;29.20;73.70;;;;;;4953484;28;20982;-58
2021/08/16 08:52:48;;;;;;;5.23;4.73;;;28.70;73.40;;;;;;4953176;28;20527;-58
2021/08/16 08:55:14;;;;;;;4.10;3.70;;;28.10;75.80;;;;;;4952267;28;20836;-58
2021/08/16 08:57:40;;;;;;;4.77;3.77;;;27.70;78.40;;;;;;4953684;28;20472;-57
2021/08/16 09:00:15;;;;;;;6.60;5.20;;;28.10;78.90;;;;;;4953771;28;21079;-56
2021/08/16 09:02:41;;;;;;;4.17;3.77;;;28.50;78.10;;;;;;4954304;29;20846;-56
2021/08/16 09:05:07;;;;;;;4.10;3.70;;;28.60;77.40;;;;;;4953350;28;20593;-56
2021/08/16 09:07:38;;;;;;;4.33;3.93;;;28.70;77.30;;;;;;4954152;28;20699;-56
2021/08/16 09:10:12;;;;;;;5.07;4.20;;;28.20;77.60;;;;;;4951732;28;20960;-55
2021/08/16 09:12:38;;;;;;;5.30;4.37;;;27.70;79.60;;;;;;4952211;29;20452;-57
2021/08/16 09:15:17;;;;;;;4.30;3.83;;;27.20;80.60;;;;;;4953337;28;20441;-55
2021/08/16 09:17:43;;;;;;;6.60;4.47;;;26.70;82.90;;;;;;4948074;29;20498;-56
2021/08/16 09:20:27;;;;;;;4.27;3.87;;;26.70;84.00;;;;;;4953085;28;21088;-55
2021/08/16 09:23:06;;;;;;;4.60;4.20;;;27.00;82.20;;;;;;4949283;29;20662;-55
2021/08/16 09:25:36;;;;;;;6.80;3.90;;;26.90;82.00;;;;;;4953035;28;20445;-58
2021/08/16 09:28:04;;;;;;;8.40;4.47;;;26.70;82.00;;;;;;4953452;28;20475;-56
2021/08/16 09:30:39;;;;;;;4.33;3.80;;;26.60;81.70;;;;;;4953075;28;20463;-56
2021/08/16 09:33:15;;;;;;;4.90;4.23;;;26.00;83.60;;;;;;4952664;29;20462;-56
2021/08/16 09:35:57;;;;;;;6.83;4.17;;;25.80;84.70;;;;;;4952354;28;20493;-56
2021/08/16 09:38:34;;;;;;;6.37;4.37;;;25.70;85.30;;;;;;4944508;29;20486;-58
2021/08/16 09:41:00;;;;;;;5.13;4.07;;;25.90;85.10;;;;;;4951424;29;21043;-55
2021/08/16 09:43:29;;;;;;;4.93;3.97;;;25.90;84.90;;;;;;4952278;28;20460;-57
2021/08/16 09:45:54;;;;;;;7.50;4.10;;;26.10;82.90;;;;;;4952647;28;20464;-57
2021/08/16 09:48:22;;;;;;;7.33;3.93;;;25.90;84.10;;;;;;4956664;28;20455;-59
2021/08/16 09:50:51;;;;;;;5.90;4.47;;;25.80;84.60;;;;;;4952239;28;20194;-58
2021/08/16 09:53:19;;;;;;;5.00;4.50;;;25.40;86.90;;;;;;4952711;28;20456;-56
2021/08/16 09:55:46;;;;;;;5.23;4.53;;;25.30;86.50;;;;;;4950225;28;20473;-57
2021/08/16 09:58:13;;;;;;;4.57;3.70;;;25.10;87.70;;;;;;4952720;28;20476;-58
2021/08/16 10:00:50;;;;;;;4.53;4.00;;;24.80;87.80;;;;;;4950245;29;20443;-57
2021/08/16 10:03:16;;;;;;;4.87;3.83;;;24.60;87.90;;;;;;4952034;29;20463;-53
2021/08/16 10:05:44;;;;;;;9.20;4.57;;;24.60;88.10;;;;;;4952999;28;20460;-59
2021/08/16 10:08:12;;;;;;;4.63;3.97;;;24.70;88.40;;;;;;4952506;28;20451;-55
2021/08/16 10:10:40;;;;;;;6.47;3.60;;;24.60;87.80;;;;;;4951751;28;20483;-56
2021/08/16 10:13:08;;;;;;;4.47;3.50;;;24.90;88.30;;;;;;4951634;28;20547;-56
2021/08/16 10:15:42;;;;;;;5.47;3.20;;;25.20;86.50;;;;;;4952598;28;20469;-53
2021/08/16 10:18:15;;;;;;;5.40;3.80;;;25.20;86.30;;;;;;4952450;28;20528;-57
2021/08/16 10:20:44;;;;;;;4.77;3.70;;;25.10;86.20;;;;;;4952393;29;20539;-57
2021/08/16 10:23:24;;;;;;;4.13;3.47;;;25.30;85.60;;;;;;4947593;28;20454;-55
2021/08/16 10:25:52;;;;;;;11.50;4.50;;;25.50;84.80;;;;;;4947842;29;20471;-57
2021/08/16 10:28:32;;;;;;;6.40;3.90;;;25.30;85.50;;;;;;4949792;29;20445;-59
2021/08/16 10:31:00;;;;;;;4.00;3.60;;;25.30;85.90;;;;;;4951316;28;20453;-55
2021/08/16 10:33:27;;;;;;;5.20;4.70;;;25.20;86.00;;;;;;4952207;28;20531;-55
2021/08/16 10:35:55;;;;;;;5.17;3.37;;;25.10;86.50;;;;;;4951557;28;20837;-55
2021/08/16 10:38:23;;;;;;;7.47;3.73;;;24.90;86.40;;;;;;4951358;29;20472;-56
2021/08/16 10:40:48;;;;;;;5.73;3.67;;;24.80;87.20;;;;;;4951793;28;20452;-56
2021/08/16 10:43:15;;;;;;;4.80;3.57;;;24.90;86.40;;;;;;4950672;28;20464;-56
2021/08/16 10:45:50;;;;;;;5.90;3.43;;;24.70;85.80;;;;;;4952172;28;20213;-56
2021/08/16 10:48:35;;;;;;;6.00;3.30;;;24.50;86.50;;;;;;4943471;28;20455;-57
2021/08/16 10:51:09;;;;;;;6.83;4.77;;;24.70;85.30;;;;;;4949875;29;20528;-57
2021/08/16 10:53:50;;;;;;;7.30;4.27;;;24.60;86.00;;;;;;4951902;29;20448;-56
2021/08/16 10:56:24;;;;;;;6.10;3.70;;;24.70;85.90;;;;;;4944498;29;20490;-55
2021/08/16 10:58:51;;;;;;;4.40;3.73;;;24.90;85.10;;;;;;4950674;28;20479;-59
2021/08/16 11:01:37;;;;;;;4.37;3.10;;;25.10;84.20;;;;;;4951795;29;20534;-57
2021/08/16 11:04:08;;;;;;;4.03;3.30;;;25.30;82.60;;;;;;4950743;29;20527;-57
2021/08/16 11:06:34;;;;;;;7.37;4.00;;;25.20;83.10;;;;;;4951406;28;20456;-58
2021/08/16 11:09:03;;;;;;;5.10;3.20;;;25.30;82.50;;;;;;4951470;28;20440;-55
2021/08/16 11:11:30;;;;;;;6.60;3.40;;;25.20;82.10;;;;;;4951276;28;20257;-56
2021/08/16 11:14:23;;;;;;;4.73;3.30;;;25.10;82.40;;;;;;4951874;28;20526;-54
2021/08/16 11:16:53;;;;;;;3.80;2.90;;;25.30;82.20;;;;;;4948049;28;20465;-55
2021/08/16 11:19:21;;;;;;;4.10;3.73;;;25.20;82.00;;;;;;4957308;28;20454;-56
2021/08/16 11:21:58;;;;;;;3.47;3.17;;;25.30;83.60;;;;;;4960464;28;20490;-56
2021/08/16 11:24:33;;;;;;;4.97;3.60;;;25.10;82.90;;;;;;4950529;29;20449;-56
2021/08/16 11:27:00;;;;;;;5.80;3.23;;;25.30;82.20;;;;;;4951182;28;20883;-55
2021/08/16 11:29:28;;;;;;;3.93;3.20;;;25.50;82.40;;;;;;4951514;28;20453;-55
2021/08/16 11:32:00;;;;;;;3.67;3.27;;;25.30;81.80;;;;;;4951886;28;20448;-56
2021/08/16 11:34:30;;;;;;;4.40;3.40;;;25.20;81.70;;;;;;4950687;28;20544;-57
2021/08/16 11:36:57;;;;;;;2.87;2.57;;;25.00;82.70;;;;;;4941792;28;20957;-56
2021/08/16 11:39:30;;;;;;;4.57;3.10;;;25.20;83.40;;;;;;4948644;29;20453;-56
2021/08/16 11:42:03;;;;;;;4.70;3.30;;;24.90;84.30;;;;;;4951281;28;20467;-56
2021/08/16 11:44:31;;;;;;;6.23;3.43;;;24.90;84.20;;;;;;4951498;28;20453;-57
2021/08/16 11:47:01;;;;;;;5.47;3.00;;;25.10;82.90;;;;;;4954096;28;20457;-56
2021/08/16 11:49:34;;;;;;;4.73;3.40;;;25.30;83.00;;;;;;4945537;28;20515;-57
2021/08/16 11:52:01;;;;;;;3.57;2.93;;;25.50;81.80;;;;;;4951763;28;20498;-55
2021/08/16 11:54:35;;;;;;;4.73;2.67;;;25.70;81.90;;;;;;4950243;28;20539;-56
2021/08/16 11:57:03;;;;;;;5.63;3.30;;;26.00;81.20;;;;;;4949913;29;20490;-53
2021/08/16 11:59:29;;;;;;;7.10;3.17;;;26.20;80.40;;;;;;4951264;28;20479;-56
2021/08/16 12:01:58;;;;;;;4.57;3.00;;;26.40;79.70;;;;;;4951224;28;20945;-54
2021/08/16 12:04:24;;;;;;;4.87;3.57;;;26.60;78.10;;;;;;4949214;28;20444;-54
2021/08/16 12:06:52;;;;;;;5.63;3.87;;;26.60;78.50;;;;;;4950859;28;20460;-54
2021/08/16 12:09:18;;;;;;;3.57;3.27;;;26.40;79.00;;;;;;4950797;28;20483;-55
2021/08/16 12:11:56;;;;;;;4.03;3.17;;;26.30;79.60;;;;;;4945047;29;20967;-55
2021/08/16 12:14:30;;;;;;;4.47;3.43;;;26.40;79.20;;;;;;4946909;29;20467;-56
2021/08/16 12:16:57;;;;;;;4.90;3.33;;;26.40;77.60;;;;;;4943084;29;20458;-56
2021/08/16 12:19:24;;;;;;;4.63;3.93;;;26.50;77.10;;;;;;4950511;28;20593;-55
2021/08/16 12:22:06;;;;;;;3.40;3.10;;;26.10;78.70;;;;;;4950423;28;20491;-56
2021/08/16 12:24:34;;;;;;;3.90;3.17;;;25.70;79.00;;;;;;4951247;28;20456;-54
2021/08/16 12:27:05;;;;;;;5.23;3.63;;;25.50;79.90;;;;;;4950249;28;21013;-58
2021/08/16 12:29:45;;;;;;;4.10;3.53;;;25.50;81.00;;;;;;4947774;28;20469;-56
2021/08/16 12:32:20;;;;;;;3.73;3.33;;;25.50;79.80;;;;;;4951035;28;20452;-54
2021/08/16 12:34:47;;;;;;;3.63;3.33;;;25.20;80.10;;;;;;4948969;29;20446;-56
2021/08/16 12:37:31;;;;;;;6.33;5.40;;;25.10;80.50;;;;;;4951338;28;20480;-55
2021/08/16 12:40:10;;;;;;;4.63;3.50;;;25.10;82.50;;;;;;4944858;29;20445;-56
2021/08/16 12:42:36;;;;;;;3.90;3.50;;;25.10;80.70;;;;;;4949790;28;20698;-54